< Typhoon 196001 1960 Season Typhoon 196003 >
Typhoon 196002 (LUCILLE)
General InformationTrack Information on Google Maps || NewsDisaster Info.ResourceGoogle EarthGE AnimationAtom FeedGeoJSON
Detalied Best Track (Time Zone = UTC)
Year Month Day Hour Lat. Long. Pressure (hPa) Wind (kt) Class Image Chart
1960 5 27 06 15.0 119.7 1004 0 2 -- Chart
1960 5 27 12 15.4 120.4 1003 0 2 -- Chart
1960 5 27 18 15.7 121.0 1003 0 2 -- Chart
1960 5 28 00 16.1 121.5 1004 0 2 -- Chart
1960 5 28 06 16.4 122.3 1002 0 2 -- Chart
1960 5 28 12 16.7 123.0 1002 0 2 -- Chart
1960 5 28 18 17.2 124.0 1002 0 2 -- Chart
1960 5 29 00 17.3 125.0 1004 0 2 -- Chart
1960 5 29 06 17.5 126.0 1002 0 2 -- Chart
1960 5 29 12 17.6 127.0 1000 0 2 -- Chart
1960 5 29 18 18.0 128.0 1000 0 2 -- Chart
1960 5 30 00 18.5 129.5 995 0 9 -- Chart
1960 5 30 06 19.5 131.0 995 0 9 -- Chart
1960 5 30 12 20.5 132.2 990 0 9 -- Chart
1960 5 30 18 21.5 133.6 985 0 9 -- Chart
1960 5 31 00 22.5 135.1 985 0 9 -- Chart
1960 5 31 06 23.5 137.0 986 0 9 -- Chart
1960 5 31 12 24.4 138.5 986 0 9 -- Chart
1960 5 31 18 26.0 140.5 986 0 9 -- Chart
1960 6 1 00 27.5 142.9 986 0 9 -- Chart
1960 6 1 06 29.0 145.0 986 0 9 -- Chart
1960 6 1 12 30.6 147.0 986 0 9 -- Chart
1960 6 1 18 32.1 149.0 990 0 9 -- Chart
1960 6 2 00 33.0 153.0 994 0 9 -- Chart
1960 6 2 06 33.0 157.5 1002 0 6 -- Chart
1960 6 2 12 33.6 160.8 1002 0 6 -- Chart
1960 6 2 18 33.7 162.9 1002 0 6 -- Chart
1960 6 3 00 33.6 165.0 1002 0 6 -- Chart
1960 6 3 06 33.6 167.5 1002 0 6 -- Chart
1960 6 3 12 33.8 170.0 1002 0 6 -- Chart
1960 6 3 18 34.3 172.5 1002 0 6 -- Chart
1960 6 4 00 34.7 175.5 1002 0 6 -- Chart
1960 6 4 06 35.8 179.0 1004 0 6 -- Chart
1960 6 4 12 38.0 182.8 1006 0 6 -- Chart
Japan Meteorological Agency Best Track Data | Correction Date : 1991-07-16
< Typhoon 196001 1960 Season Typhoon 196003 >

Help